sensor_id;sensor_type;location;lat;lon;timestamp;P1;durP1;ratioP1;P2;durP2;ratioP2
4290;SDS011;2159;50.906;7.152;2023-02-04T00:00:08;20.50;;;3.40;;
4290;SDS011;2159;50.906;7.152;2023-02-04T00:02:36;14.50;;;3.50;;
4290;SDS011;2159;50.906;7.152;2023-02-04T00:05:06;12.73;;;3.43;;
4290;SDS011;2159;50.906;7.152;2023-02-04T00:07:33;16.10;;;3.93;;
4290;SDS011;2159;50.906;7.152;2023-02-04T00:10:01;10.60;;;3.23;;
4290;SDS011;2159;50.906;7.152;2023-02-04T00:12:28;12.60;;;3.77;;
4290;SDS011;2159;50.906;7.152;2023-02-04T00:14:56;16.03;;;3.83;;
4290;SDS011;2159;50.906;7.152;2023-02-04T00:17:23;7.47;;;2.40;;
4290;SDS011;2159;50.906;7.152;2023-02-04T00:19:51;9.33;;;3.00;;
4290;SDS011;2159;50.906;7.152;2023-02-04T00:22:19;12.47;;;3.40;;
4290;SDS011;2159;50.906;7.152;2023-02-04T00:24:47;19.90;;;3.07;;
4290;SDS011;2159;50.906;7.152;2023-02-04T00:27:15;23.40;;;3.00;;
4290;SDS011;2159;50.906;7.152;2023-02-04T00:29:43;11.63;;;3.60;;
4290;SDS011;2159;50.906;7.152;2023-02-04T00:32:10;12.00;;;3.07;;
4290;SDS011;2159;50.906;7.152;2023-02-04T00:34:38;14.67;;;4.30;;
4290;SDS011;2159;50.906;7.152;2023-02-04T00:37:05;19.43;;;3.00;;
4290;SDS011;2159;50.906;7.152;2023-02-04T00:39:34;16.37;;;3.20;;
4290;SDS011;2159;50.906;7.152;2023-02-04T00:42:02;11.30;;;3.20;;
4290;SDS011;2159;50.906;7.152;2023-02-04T00:44:30;16.23;;;3.90;;
4290;SDS011;2159;50.906;7.152;2023-02-04T00:46:58;28.93;;;3.77;;
4290;SDS011;2159;50.906;7.152;2023-02-04T00:49:25;9.83;;;3.10;;
4290;SDS011;2159;50.906;7.152;2023-02-04T00:51:53;23.70;;;3.83;;
4290;SDS011;2159;50.906;7.152;2023-02-04T00:54:20;12.70;;;3.50;;
4290;SDS011;2159;50.906;7.152;2023-02-04T00:56:49;16.43;;;4.00;;
4290;SDS011;2159;50.906;7.152;2023-02-04T00:59:17;14.10;;;3.27;;
4290;SDS011;2159;50.906;7.152;2023-02-04T01:01:44;15.80;;;3.40;;
4290;SDS011;2159;50.906;7.152;2023-02-04T01:04:12;16.17;;;3.53;;
4290;SDS011;2159;50.906;7.152;2023-02-04T01:06:40;15.93;;;3.67;;
4290;SDS011;2159;50.906;7.152;2023-02-04T01:09:07;18.83;;;3.90;;
4290;SDS011;2159;50.906;7.152;2023-02-04T01:11:35;17.57;;;3.80;;
4290;SDS011;2159;50.906;7.152;2023-02-04T01:14:04;12.40;;;3.00;;
4290;SDS011;2159;50.906;7.152;2023-02-04T01:16:31;15.00;;;3.80;;
4290;SDS011;2159;50.906;7.152;2023-02-04T01:18:59;13.30;;;3.60;;
4290;SDS011;2159;50.906;7.152;2023-02-04T01:21:26;20.90;;;3.37;;
4290;SDS011;2159;50.906;7.152;2023-02-04T01:23:54;16.77;;;3.80;;
4290;SDS011;2159;50.906;7.152;2023-02-04T01:26:21;12.70;;;3.70;;
4290;SDS011;2159;50.906;7.152;2023-02-04T01:28:49;10.97;;;3.70;;
4290;SDS011;2159;50.906;7.152;2023-02-04T01:31:18;10.43;;;3.20;;
4290;SDS011;2159;50.906;7.152;2023-02-04T01:33:45;13.10;;;3.47;;
4290;SDS011;2159;50.906;7.152;2023-02-04T01:36:13;15.10;;;3.30;;
4290;SDS011;2159;50.906;7.152;2023-02-04T01:38:41;13.07;;;3.70;;
4290;SDS011;2159;50.906;7.152;2023-02-04T01:41:09;18.60;;;3.90;;
4290;SDS011;2159;50.906;7.152;2023-02-04T01:43:36;16.97;;;3.43;;
4290;SDS011;2159;50.906;7.152;2023-02-04T01:46:04;10.53;;;3.10;;
4290;SDS011;2159;50.906;7.152;2023-02-04T01:48:33;14.23;;;4.00;;
4290;SDS011;2159;50.906;7.152;2023-02-04T01:51:01;15.93;;;3.10;;
4290;SDS011;2159;50.906;7.152;2023-02-04T01:53:29;11.40;;;3.17;;
4290;SDS011;2159;50.906;7.152;2023-02-04T01:55:58;13.23;;;3.80;;
4290;SDS011;2159;50.906;7.152;2023-02-04T01:58:25;16.87;;;3.63;;
4290;SDS011;2159;50.906;7.152;2023-02-04T02:00:56;16.33;;;3.50;;
4290;SDS011;2159;50.906;7.152;2023-02-04T02:03:23;10.80;;;3.70;;
4290;SDS011;2159;50.906;7.152;2023-02-04T02:05:52;15.10;;;3.80;;
4290;SDS011;2159;50.906;7.152;2023-02-04T02:08:20;19.57;;;3.70;;
4290;SDS011;2159;50.906;7.152;2023-02-04T02:10:48;15.83;;;4.20;;
4290;SDS011;2159;50.906;7.152;2023-02-04T02:13:16;19.50;;;3.67;;
4290;SDS011;2159;50.906;7.152;2023-02-04T02:15:44;19.07;;;3.60;;
4290;SDS011;2159;50.906;7.152;2023-02-04T02:18:12;12.17;;;3.87;;
4290;SDS011;2159;50.906;7.152;2023-02-04T02:20:41;20.27;;;4.27;;
4290;SDS011;2159;50.906;7.152;2023-02-04T02:23:13;21.00;;;3.80;;
4290;SDS011;2159;50.906;7.152;2023-02-04T02:25:43;20.20;;;3.73;;
4290;SDS011;2159;50.906;7.152;2023-02-04T02:28:12;13.50;;;3.20;;
4290;SDS011;2159;50.906;7.152;2023-02-04T02:30:40;16.67;;;3.47;;
4290;SDS011;2159;50.906;7.152;2023-02-04T02:33:10;10.47;;;3.33;;
4290;SDS011;2159;50.906;7.152;2023-02-04T02:35:39;19.13;;;3.50;;
4290;SDS011;2159;50.906;7.152;2023-02-04T02:38:08;19.73;;;3.37;;
4290;SDS011;2159;50.906;7.152;2023-02-04T02:40:36;14.00;;;3.90;;
4290;SDS011;2159;50.906;7.152;2023-02-04T02:43:05;17.47;;;3.70;;
4290;SDS011;2159;50.906;7.152;2023-02-04T02:45:33;12.97;;;3.73;;
4290;SDS011;2159;50.906;7.152;2023-02-04T02:48:01;18.83;;;3.23;;
4290;SDS011;2159;50.906;7.152;2023-02-04T02:50:29;14.00;;;3.03;;
4290;SDS011;2159;50.906;7.152;2023-02-04T02:52:57;15.03;;;3.43;;
4290;SDS011;2159;50.906;7.152;2023-02-04T02:55:25;19.13;;;3.70;;
4290;SDS011;2159;50.906;7.152;2023-02-04T02:57:54;19.60;;;3.77;;
4290;SDS011;2159;50.906;7.152;2023-02-04T03:00:24;17.17;;;3.60;;
4290;SDS011;2159;50.906;7.152;2023-02-04T03:02:53;14.80;;;3.67;;
4290;SDS011;2159;50.906;7.152;2023-02-04T03:05:23;18.70;;;3.53;;
4290;SDS011;2159;50.906;7.152;2023-02-04T03:07:51;13.07;;;3.27;;
4290;SDS011;2159;50.906;7.152;2023-02-04T03:10:18;15.17;;;3.30;;
4290;SDS011;2159;50.906;7.152;2023-02-04T03:12:45;14.47;;;3.43;;
4290;SDS011;2159;50.906;7.152;2023-02-04T03:15:13;13.27;;;3.47;;
4290;SDS011;2159;50.906;7.152;2023-02-04T03:17:42;14.90;;;3.13;;
4290;SDS011;2159;50.906;7.152;2023-02-04T03:20:10;16.50;;;3.20;;
4290;SDS011;2159;50.906;7.152;2023-02-04T03:22:38;13.83;;;3.40;;
4290;SDS011;2159;50.906;7.152;2023-02-04T03:25:06;18.17;;;3.80;;
4290;SDS011;2159;50.906;7.152;2023-02-04T03:27:33;17.27;;;3.30;;
4290;SDS011;2159;50.906;7.152;2023-02-04T03:30:01;18.80;;;3.83;;
4290;SDS011;2159;50.906;7.152;2023-02-04T03:32:29;15.07;;;3.57;;
4290;SDS011;2159;50.906;7.152;2023-02-04T03:34:57;11.03;;;3.47;;
4290;SDS011;2159;50.906;7.152;2023-02-04T03:37:25;13.83;;;3.37;;
4290;SDS011;2159;50.906;7.152;2023-02-04T03:39:52;19.73;;;3.43;;
4290;SDS011;2159;50.906;7.152;2023-02-04T03:42:20;11.90;;;3.13;;
4290;SDS011;2159;50.906;7.152;2023-02-04T03:44:47;9.50;;;3.17;;
4290;SDS011;2159;50.906;7.152;2023-02-04T03:47:15;13.93;;;3.23;;
4290;SDS011;2159;50.906;7.152;2023-02-04T03:49:42;17.40;;;3.87;;
4290;SDS011;2159;50.906;7.152;2023-02-04T03:52:11;15.87;;;3.70;;
4290;SDS011;2159;50.906;7.152;2023-02-04T03:54:38;11.80;;;3.23;;
4290;SDS011;2159;50.906;7.152;2023-02-04T03:57:06;19.67;;;3.90;;
4290;SDS011;2159;50.906;7.152;2023-02-04T03:59:33;15.80;;;3.07;;
4290;SDS011;2159;50.906;7.152;2023-02-04T04:02:01;12.73;;;3.10;;
4290;SDS011;2159;50.906;7.152;2023-02-04T04:04:28;19.23;;;3.87;;
4290;SDS011;2159;50.906;7.152;2023-02-04T04:06:55;29.47;;;3.90;;
4290;SDS011;2159;50.906;7.152;2023-02-04T04:09:24;13.33;;;3.40;;
4290;SDS011;2159;50.906;7.152;2023-02-04T04:11:52;16.70;;;3.53;;
4290;SDS011;2159;50.906;7.152;2023-02-04T04:14:19;18.57;;;3.63;;
4290;SDS011;2159;50.906;7.152;2023-02-04T04:16:47;9.93;;;3.10;;
4290;SDS011;2159;50.906;7.152;2023-02-04T04:19:14;15.80;;;3.37;;
4290;SDS011;2159;50.906;7.152;2023-02-04T04:21:42;13.17;;;3.03;;
4290;SDS011;2159;50.906;7.152;2023-02-04T04:24:09;20.23;;;3.57;;
4290;SDS011;2159;50.906;7.152;2023-02-04T04:26:38;17.73;;;2.97;;
4290;SDS011;2159;50.906;7.152;2023-02-04T04:29:05;13.10;;;3.40;;
4290;SDS011;2159;50.906;7.152;2023-02-04T04:31:32;17.70;;;3.43;;
4290;SDS011;2159;50.906;7.152;2023-02-04T04:34:00;10.27;;;2.57;;
4290;SDS011;2159;50.906;7.152;2023-02-04T04:36:27;19.30;;;3.20;;
4290;SDS011;2159;50.906;7.152;2023-02-04T04:38:55;13.67;;;3.40;;
4290;SDS011;2159;50.906;7.152;2023-02-04T04:41:22;10.67;;;2.60;;
4290;SDS011;2159;50.906;7.152;2023-02-04T04:43:51;13.33;;;3.07;;
4290;SDS011;2159;50.906;7.152;2023-02-04T04:46:19;14.63;;;2.77;;
4290;SDS011;2159;50.906;7.152;2023-02-04T04:48:46;11.60;;;2.47;;
4290;SDS011;2159;50.906;7.152;2023-02-04T04:51:14;17.73;;;2.50;;
4290;SDS011;2159;50.906;7.152;2023-02-04T04:53:41;19.60;;;3.33;;
4290;SDS011;2159;50.906;7.152;2023-02-04T04:56:09;11.60;;;2.70;;
4290;SDS011;2159;50.906;7.152;2023-02-04T04:58:36;12.40;;;3.30;;
4290;SDS011;2159;50.906;7.152;2023-02-04T05:01:05;16.77;;;3.80;;
4290;SDS011;2159;50.906;7.152;2023-02-04T05:03:32;12.53;;;3.03;;
4290;SDS011;2159;50.906;7.152;2023-02-04T05:06:00;13.57;;;2.77;;
4290;SDS011;2159;50.906;7.152;2023-02-04T05:08:27;9.93;;;2.77;;
4290;SDS011;2159;50.906;7.152;2023-02-04T05:10:55;10.30;;;2.63;;
4290;SDS011;2159;50.906;7.152;2023-02-04T05:13:22;13.30;;;2.90;;
4290;SDS011;2159;50.906;7.152;2023-02-04T05:15:50;14.40;;;3.07;;
4290;SDS011;2159;50.906;7.152;2023-02-04T05:18:19;9.03;;;3.03;;
4290;SDS011;2159;50.906;7.152;2023-02-04T05:20:46;11.77;;;2.47;;
4290;SDS011;2159;50.906;7.152;2023-02-04T05:23:14;14.70;;;2.80;;
4290;SDS011;2159;50.906;7.152;2023-02-04T05:25:42;17.50;;;2.90;;
4290;SDS011;2159;50.906;7.152;2023-02-04T05:28:09;14.13;;;2.90;;
4290;SDS011;2159;50.906;7.152;2023-02-04T05:30:37;11.00;;;2.73;;
4290;SDS011;2159;50.906;7.152;2023-02-04T05:33:04;15.93;;;3.30;;
4290;SDS011;2159;50.906;7.152;2023-02-04T05:35:33;11.30;;;2.57;;
4290;SDS011;2159;50.906;7.152;2023-02-04T05:38:00;8.57;;;3.00;;
4290;SDS011;2159;50.906;7.152;2023-02-04T05:40:28;18.90;;;3.00;;
4290;SDS011;2159;50.906;7.152;2023-02-04T05:42:56;19.63;;;3.47;;
4290;SDS011;2159;50.906;7.152;2023-02-04T05:45:23;14.03;;;3.37;;
4290;SDS011;2159;50.906;7.152;2023-02-04T05:47:51;12.33;;;3.10;;
4290;SDS011;2159;50.906;7.152;2023-02-04T05:50:19;14.00;;;3.20;;
4290;SDS011;2159;50.906;7.152;2023-02-04T05:52:48;13.90;;;3.30;;
4290;SDS011;2159;50.906;7.152;2023-02-04T05:55:15;12.50;;;3.40;;
4290;SDS011;2159;50.906;7.152;2023-02-04T05:57:43;14.43;;;3.30;;
4290;SDS011;2159;50.906;7.152;2023-02-04T06:00:10;13.00;;;2.60;;
4290;SDS011;2159;50.906;7.152;2023-02-04T06:02:38;11.70;;;3.47;;
4290;SDS011;2159;50.906;7.152;2023-02-04T06:05:06;10.40;;;2.77;;
4290;SDS011;2159;50.906;7.152;2023-02-04T06:07:33;14.40;;;3.50;;
4290;SDS011;2159;50.906;7.152;2023-02-04T06:10:02;12.30;;;3.07;;
4290;SDS011;2159;50.906;7.152;2023-02-04T06:12:29;19.00;;;3.77;;
4290;SDS011;2159;50.906;7.152;2023-02-04T06:14:57;16.23;;;3.27;;
4290;SDS011;2159;50.906;7.152;2023-02-04T06:17:24;20.60;;;3.47;;
4290;SDS011;2159;50.906;7.152;2023-02-04T06:19:52;16.87;;;3.60;;
4290;SDS011;2159;50.906;7.152;2023-02-04T06:22:19;20.57;;;3.57;;
4290;SDS011;2159;50.906;7.152;2023-02-04T06:24:49;13.33;;;3.07;;
4290;SDS011;2159;50.906;7.152;2023-02-04T06:27:18;14.87;;;3.53;;
4290;SDS011;2159;50.906;7.152;2023-02-04T06:29:48;17.00;;;3.00;;
4290;SDS011;2159;50.906;7.152;2023-02-04T06:32:16;12.90;;;3.80;;
4290;SDS011;2159;50.906;7.152;2023-02-04T06:34:43;14.03;;;3.70;;
4290;SDS011;2159;50.906;7.152;2023-02-04T06:37:11;20.10;;;4.07;;
4290;SDS011;2159;50.906;7.152;2023-02-04T06:39:38;14.90;;;3.17;;
4290;SDS011;2159;50.906;7.152;2023-02-04T06:42:06;27.90;;;3.80;;
4290;SDS011;2159;50.906;7.152;2023-02-04T06:44:35;13.13;;;3.33;;
4290;SDS011;2159;50.906;7.152;2023-02-04T06:47:02;16.10;;;3.03;;
4290;SDS011;2159;50.906;7.152;2023-02-04T06:49:30;11.67;;;3.30;;
4290;SDS011;2159;50.906;7.152;2023-02-04T06:51:57;11.13;;;3.33;;
4290;SDS011;2159;50.906;7.152;2023-02-04T06:54:24;10.33;;;2.90;;
4290;SDS011;2159;50.906;7.152;2023-02-04T06:56:52;19.63;;;3.23;;
4290;SDS011;2159;50.906;7.152;2023-02-04T06:59:19;12.63;;;3.47;;
4290;SDS011;2159;50.906;7.152;2023-02-04T07:01:48;15.73;;;3.50;;
4290;SDS011;2159;50.906;7.152;2023-02-04T07:04:16;11.73;;;2.83;;
4290;SDS011;2159;50.906;7.152;2023-02-04T07:06:43;21.70;;;3.50;;
4290;SDS011;2159;50.906;7.152;2023-02-04T07:09:10;18.33;;;3.33;;
4290;SDS011;2159;50.906;7.152;2023-02-04T07:11:38;15.23;;;3.20;;
4290;SDS011;2159;50.906;7.152;2023-02-04T07:14:05;14.70;;;3.70;;
4290;SDS011;2159;50.906;7.152;2023-02-04T07:16:33;21.00;;;4.87;;
4290;SDS011;2159;50.906;7.152;2023-02-04T07:19:01;11.93;;;3.33;;
4290;SDS011;2159;50.906;7.152;2023-02-04T07:21:29;14.13;;;3.83;;
4290;SDS011;2159;50.906;7.152;2023-02-04T07:23:58;13.33;;;3.53;;
4290;SDS011;2159;50.906;7.152;2023-02-04T07:26:26;16.13;;;4.20;;
4290;SDS011;2159;50.906;7.152;2023-02-04T07:28:53;17.00;;;4.07;;
4290;SDS011;2159;50.906;7.152;2023-02-04T07:31:21;16.30;;;4.57;;
4290;SDS011;2159;50.906;7.152;2023-02-04T07:33:49;12.23;;;3.90;;
4290;SDS011;2159;50.906;7.152;2023-02-04T07:36:17;15.70;;;3.90;;
4290;SDS011;2159;50.906;7.152;2023-02-04T07:38:45;14.93;;;4.00;;
4290;SDS011;2159;50.906;7.152;2023-02-04T07:41:12;24.80;;;4.50;;
4290;SDS011;2159;50.906;7.152;2023-02-04T07:43:40;15.77;;;4.00;;
4290;SDS011;2159;50.906;7.152;2023-02-04T07:46:07;14.17;;;4.33;;
4290;SDS011;2159;50.906;7.152;2023-02-04T07:48:35;16.53;;;4.93;;
4290;SDS011;2159;50.906;7.152;2023-02-04T07:51:02;17.77;;;4.40;;
4290;SDS011;2159;50.906;7.152;2023-02-04T07:53:31;16.33;;;4.00;;
4290;SDS011;2159;50.906;7.152;2023-02-04T07:55:59;19.17;;;4.43;;
4290;SDS011;2159;50.906;7.152;2023-02-04T07:58:27;13.23;;;4.07;;
4290;SDS011;2159;50.906;7.152;2023-02-04T08:00:54;16.07;;;4.30;;
4290;SDS011;2159;50.906;7.152;2023-02-04T08:03:22;13.70;;;4.17;;
4290;SDS011;2159;50.906;7.152;2023-02-04T08:05:49;19.60;;;5.23;;
4290;SDS011;2159;50.906;7.152;2023-02-04T08:08:16;18.63;;;4.70;;
4290;SDS011;2159;50.906;7.152;2023-02-04T08:10:45;18.63;;;4.83;;
4290;SDS011;2159;50.906;7.152;2023-02-04T08:13:13;18.40;;;5.00;;
4290;SDS011;2159;50.906;7.152;2023-02-04T08:15:40;21.23;;;4.50;;
4290;SDS011;2159;50.906;7.152;2023-02-04T08:18:08;19.20;;;4.30;;
4290;SDS011;2159;50.906;7.152;2023-02-04T08:20:35;17.77;;;4.93;;
4290;SDS011;2159;50.906;7.152;2023-02-04T08:23:03;14.27;;;4.20;;
4290;SDS011;2159;50.906;7.152;2023-02-04T08:25:30;13.70;;;3.93;;
4290;SDS011;2159;50.906;7.152;2023-02-04T08:28:01;20.73;;;4.30;;
4290;SDS011;2159;50.906;7.152;2023-02-04T08:30:29;20.97;;;4.10;;
4290;SDS011;2159;50.906;7.152;2023-02-04T08:32:57;14.70;;;4.20;;
4290;SDS011;2159;50.906;7.152;2023-02-04T08:35:24;13.37;;;4.70;;
4290;SDS011;2159;50.906;7.152;2023-02-04T08:37:52;23.73;;;5.30;;
4290;SDS011;2159;50.906;7.152;2023-02-04T08:40:19;14.87;;;4.73;;
4290;SDS011;2159;50.906;7.152;2023-02-04T08:42:46;20.37;;;4.40;;
4290;SDS011;2159;50.906;7.152;2023-02-04T08:45:15;15.17;;;4.80;;
4290;SDS011;2159;50.906;7.152;2023-02-04T08:47:43;20.13;;;5.33;;
4290;SDS011;2159;50.906;7.152;2023-02-04T08:50:10;19.13;;;5.27;;
4290;SDS011;2159;50.906;7.152;2023-02-04T08:52:38;18.10;;;5.77;;
4290;SDS011;2159;50.906;7.152;2023-02-04T08:55:06;25.23;;;6.27;;
4290;SDS011;2159;50.906;7.152;2023-02-04T08:57:33;18.30;;;5.53;;
4290;SDS011;2159;50.906;7.152;2023-02-04T09:00:01;21.10;;;6.60;;
4290;SDS011;2159;50.906;7.152;2023-02-04T09:02:30;20.33;;;4.70;;
4290;SDS011;2159;50.906;7.152;2023-02-04T09:04:57;19.03;;;5.20;;
4290;SDS011;2159;50.906;7.152;2023-02-04T09:07:24;26.63;;;5.63;;
4290;SDS011;2159;50.906;7.152;2023-02-04T09:09:52;22.60;;;5.37;;
4290;SDS011;2159;50.906;7.152;2023-02-04T09:12:19;20.13;;;5.30;;
4290;SDS011;2159;50.906;7.152;2023-02-04T09:14:47;22.07;;;6.27;;
4290;SDS011;2159;50.906;7.152;2023-02-04T09:17:14;21.53;;;5.87;;
4290;SDS011;2159;50.906;7.152;2023-02-04T09:19:43;20.80;;;6.40;;
4290;SDS011;2159;50.906;7.152;2023-02-04T09:22:10;17.93;;;5.93;;
4290;SDS011;2159;50.906;7.152;2023-02-04T09:24:38;16.97;;;6.30;;
4290;SDS011;2159;50.906;7.152;2023-02-04T09:27:06;24.63;;;5.73;;
4290;SDS011;2159;50.906;7.152;2023-02-04T09:29:33;26.20;;;6.97;;
4290;SDS011;2159;50.906;7.152;2023-02-04T09:32:01;20.13;;;6.33;;
4290;SDS011;2159;50.906;7.152;2023-02-04T09:34:28;17.20;;;5.63;;
4290;SDS011;2159;50.906;7.152;2023-02-04T09:36:57;15.63;;;6.20;;
4290;SDS011;2159;50.906;7.152;2023-02-04T09:39:25;22.43;;;7.57;;
4290;SDS011;2159;50.906;7.152;2023-02-04T09:41:52;25.80;;;8.40;;
4290;SDS011;2159;50.906;7.152;2023-02-04T09:44:21;26.57;;;8.27;;
4290;SDS011;2159;50.906;7.152;2023-02-04T09:46:51;23.98;;;8.18;;
4290;SDS011;2159;50.906;7.152;2023-02-04T09:49:19;19.37;;;8.77;;
4290;SDS011;2159;50.906;7.152;2023-02-04T09:51:46;27.03;;;9.50;;
4290;SDS011;2159;50.906;7.152;2023-02-04T09:54:17;22.90;;;9.57;;
4290;SDS011;2159;50.906;7.152;2023-02-04T09:56:45;31.27;;;8.00;;
4290;SDS011;2159;50.906;7.152;2023-02-04T09:59:13;17.43;;;7.70;;
4290;SDS011;2159;50.906;7.152;2023-02-04T10:01:41;28.10;;;8.17;;
4290;SDS011;2159;50.906;7.152;2023-02-04T10:04:09;25.43;;;7.70;;
4290;SDS011;2159;50.906;7.152;2023-02-04T10:06:37;27.10;;;7.90;;
4290;SDS011;2159;50.906;7.152;2023-02-04T10:09:05;25.67;;;8.50;;
4290;SDS011;2159;50.906;7.152;2023-02-04T10:11:35;28.20;;;9.60;;
4290;SDS011;2159;50.906;7.152;2023-02-04T10:14:03;30.73;;;10.97;;
4290;SDS011;2159;50.906;7.152;2023-02-04T10:16:31;27.10;;;10.20;;
4290;SDS011;2159;50.906;7.152;2023-02-04T10:19:00;25.60;;;11.70;;
4290;SDS011;2159;50.906;7.152;2023-02-04T10:21:29;27.13;;;12.00;;
4290;SDS011;2159;50.906;7.152;2023-02-04T10:23:58;34.00;;;12.70;;
4290;SDS011;2159;50.906;7.152;2023-02-04T10:26:26;32.17;;;13.90;;
4290;SDS011;2159;50.906;7.152;2023-02-04T10:29:00;27.20;;;10.50;;
4290;SDS011;2159;50.906;7.152;2023-02-04T10:31:34;28.43;;;11.23;;
4290;SDS011;2159;50.906;7.152;2023-02-04T10:34:04;28.60;;;10.13;;
4290;SDS011;2159;50.906;7.152;2023-02-04T10:36:31;34.10;;;11.17;;
4290;SDS011;2159;50.906;7.152;2023-02-04T10:38:59;30.73;;;10.70;;
4290;SDS011;2159;50.906;7.152;2023-02-04T10:41:27;21.60;;;9.33;;
4290;SDS011;2159;50.906;7.152;2023-02-04T10:44:02;24.37;;;11.80;;
4290;SDS011;2159;50.906;7.152;2023-02-04T10:46:30;26.00;;;11.07;;
4290;SDS011;2159;50.906;7.152;2023-02-04T10:48:58;35.40;;;10.80;;
4290;SDS011;2159;50.906;7.152;2023-02-04T10:51:26;28.33;;;10.30;;
4290;SDS011;2159;50.906;7.152;2023-02-04T10:53:54;30.80;;;11.40;;
4290;SDS011;2159;50.906;7.152;2023-02-04T10:56:39;25.67;;;9.47;;
4290;SDS011;2159;50.906;7.152;2023-02-04T10:59:11;25.33;;;9.70;;
4290;SDS011;2159;50.906;7.152;2023-02-04T11:01:42;21.70;;;10.10;;
4290;SDS011;2159;50.906;7.152;2023-02-04T11:04:09;23.40;;;9.73;;
4290;SDS011;2159;50.906;7.152;2023-02-04T11:06:37;22.13;;;10.13;;
4290;SDS011;2159;50.906;7.152;2023-02-04T11:09:04;26.53;;;10.50;;
4290;SDS011;2159;50.906;7.152;2023-02-04T11:11:32;30.30;;;11.20;;
4290;SDS011;2159;50.906;7.152;2023-02-04T11:14:00;25.77;;;10.63;;
4290;SDS011;2159;50.906;7.152;2023-02-04T11:16:31;30.03;;;11.17;;
4290;SDS011;2159;50.906;7.152;2023-02-04T11:19:01;29.73;;;9.90;;
4290;SDS011;2159;50.906;7.152;2023-02-04T11:21:40;18.97;;;9.10;;
4290;SDS011;2159;50.906;7.152;2023-02-04T11:24:19;24.97;;;10.30;;
4290;SDS011;2159;50.906;7.152;2023-02-04T11:26:49;28.10;;;10.47;;
4290;SDS011;2159;50.906;7.152;2023-02-04T11:29:24;24.27;;;9.73;;
4290;SDS011;2159;50.906;7.152;2023-02-04T11:31:57;29.50;;;9.10;;
4290;SDS011;2159;50.906;7.152;2023-02-04T11:34:28;22.30;;;8.80;;
4290;SDS011;2159;50.906;7.152;2023-02-04T11:37:02;27.20;;;9.47;;
4290;SDS011;2159;50.906;7.152;2023-02-04T11:39:32;27.43;;;10.13;;
4290;SDS011;2159;50.906;7.152;2023-02-04T11:42:00;24.50;;;10.43;;
4290;SDS011;2159;50.906;7.152;2023-02-04T11:44:28;27.67;;;9.67;;
4290;SDS011;2159;50.906;7.152;2023-02-04T11:46:57;28.53;;;10.40;;
4290;SDS011;2159;50.906;7.152;2023-02-04T11:49:25;27.37;;;10.00;;
4290;SDS011;2159;50.906;7.152;2023-02-04T11:52:02;33.33;;;15.00;;
4290;SDS011;2159;50.906;7.152;2023-02-04T11:54:33;17.33;;;9.20;;
4290;SDS011;2159;50.906;7.152;2023-02-04T11:57:03;27.13;;;10.13;;
4290;SDS011;2159;50.906;7.152;2023-02-04T11:59:30;24.83;;;8.90;;
4290;SDS011;2159;50.906;7.152;2023-02-04T12:02:14;22.23;;;7.33;;
4290;SDS011;2159;50.906;7.152;2023-02-04T12:04:49;21.90;;;7.20;;
4290;SDS011;2159;50.906;7.152;2023-02-04T12:07:20;24.60;;;7.87;;
4290;SDS011;2159;50.906;7.152;2023-02-04T12:09:47;23.10;;;7.33;;
4290;SDS011;2159;50.906;7.152;2023-02-04T12:12:21;24.07;;;9.70;;
4290;SDS011;2159;50.906;7.152;2023-02-04T12:14:55;23.37;;;8.73;;
4290;SDS011;2159;50.906;7.152;2023-02-04T12:17:24;28.87;;;8.67;;
4290;SDS011;2159;50.906;7.152;2023-02-04T12:19:51;22.53;;;8.20;;
4290;SDS011;2159;50.906;7.152;2023-02-04T12:22:19;22.73;;;8.20;;
4290;SDS011;2159;50.906;7.152;2023-02-04T12:24:46;21.07;;;8.07;;
4290;SDS011;2159;50.906;7.152;2023-02-04T12:27:13;27.90;;;8.20;;
4290;SDS011;2159;50.906;7.152;2023-02-04T12:29:41;27.17;;;7.93;;
4290;SDS011;2159;50.906;7.152;2023-02-04T12:32:08;15.67;;;7.67;;
4290;SDS011;2159;50.906;7.152;2023-02-04T12:34:37;20.10;;;7.80;;
4290;SDS011;2159;50.906;7.152;2023-02-04T12:37:05;29.90;;;8.60;;
4290;SDS011;2159;50.906;7.152;2023-02-04T12:39:32;22.73;;;8.17;;
4290;SDS011;2159;50.906;7.152;2023-02-04T12:42:00;28.83;;;8.70;;
4290;SDS011;2159;50.906;7.152;2023-02-04T12:44:29;23.50;;;8.47;;
4290;SDS011;2159;50.906;7.152;2023-02-04T12:46:57;23.60;;;8.80;;
4290;SDS011;2159;50.906;7.152;2023-02-04T12:49:24;25.37;;;8.93;;
4290;SDS011;2159;50.906;7.152;2023-02-04T12:51:53;23.30;;;9.13;;
4290;SDS011;2159;50.906;7.152;2023-02-04T12:54:24;23.60;;;9.17;;
4290;SDS011;2159;50.906;7.152;2023-02-04T12:56:51;26.33;;;10.27;;
4290;SDS011;2159;50.906;7.152;2023-02-04T12:59:23;19.50;;;9.17;;
4290;SDS011;2159;50.906;7.152;2023-02-04T13:01:50;27.57;;;10.70;;
4290;SDS011;2159;50.906;7.152;2023-02-04T13:04:18;21.70;;;9.50;;
4290;SDS011;2159;50.906;7.152;2023-02-04T13:06:45;23.37;;;8.97;;
4290;SDS011;2159;50.906;7.152;2023-02-04T13:09:14;20.83;;;8.43;;
4290;SDS011;2159;50.906;7.152;2023-02-04T13:11:42;27.47;;;9.03;;
4290;SDS011;2159;50.906;7.152;2023-02-04T13:14:09;20.03;;;9.20;;
4290;SDS011;2159;50.906;7.152;2023-02-04T13:16:37;21.97;;;9.17;;
4290;SDS011;2159;50.906;7.152;2023-02-04T13:19:04;24.97;;;8.43;;
4290;SDS011;2159;50.906;7.152;2023-02-04T13:21:32;27.30;;;8.60;;
4290;SDS011;2159;50.906;7.152;2023-02-04T13:23:59;24.43;;;8.23;;
4290;SDS011;2159;50.906;7.152;2023-02-04T13:26:28;20.70;;;8.07;;
4290;SDS011;2159;50.906;7.152;2023-02-04T13:28:55;26.33;;;8.30;;
4290;SDS011;2159;50.906;7.152;2023-02-04T13:31:23;19.53;;;8.30;;
4290;SDS011;2159;50.906;7.152;2023-02-04T13:33:50;20.37;;;7.50;;
4290;SDS011;2159;50.906;7.152;2023-02-04T13:36:18;18.97;;;7.50;;
4290;SDS011;2159;50.906;7.152;2023-02-04T13:38:45;21.30;;;7.53;;
4290;SDS011;2159;50.906;7.152;2023-02-04T13:41:12;25.87;;;6.90;;
4290;SDS011;2159;50.906;7.152;2023-02-04T13:43:41;19.50;;;7.70;;
4290;SDS011;2159;50.906;7.152;2023-02-04T13:46:09;17.40;;;7.30;;
4290;SDS011;2159;50.906;7.152;2023-02-04T13:48:36;24.77;;;7.63;;
4290;SDS011;2159;50.906;7.152;2023-02-04T13:51:04;14.30;;;6.30;;
4290;SDS011;2159;50.906;7.152;2023-02-04T13:53:31;18.57;;;7.40;;
4290;SDS011;2159;50.906;7.152;2023-02-04T13:55:59;16.83;;;7.00;;
4290;SDS011;2159;50.906;7.152;2023-02-04T13:58:27;16.83;;;6.80;;
4290;SDS011;2159;50.906;7.152;2023-02-04T14:00:55;24.00;;;7.30;;
4290;SDS011;2159;50.906;7.152;2023-02-04T14:03:23;19.10;;;7.10;;
4290;SDS011;2159;50.906;7.152;2023-02-04T14:05:51;21.80;;;6.30;;
4290;SDS011;2159;50.906;7.152;2023-02-04T14:08:18;25.13;;;6.77;;
4290;SDS011;2159;50.906;7.152;2023-02-04T14:10:46;18.40;;;7.10;;
4290;SDS011;2159;50.906;7.152;2023-02-04T14:13:13;13.67;;;5.60;;
4290;SDS011;2159;50.906;7.152;2023-02-04T14:15:41;15.33;;;6.20;;
4290;SDS011;2159;50.906;7.152;2023-02-04T14:18:10;13.23;;;5.40;;
4290;SDS011;2159;50.906;7.152;2023-02-04T14:20:37;12.20;;;5.37;;
4290;SDS011;2159;50.906;7.152;2023-02-04T14:23:05;15.83;;;5.40;;
4290;SDS011;2159;50.906;7.152;2023-02-04T14:25:32;13.30;;;5.67;;
4290;SDS011;2159;50.906;7.152;2023-02-04T14:28:00;10.17;;;5.23;;
4290;SDS011;2159;50.906;7.152;2023-02-04T14:30:27;14.50;;;5.70;;
4290;SDS011;2159;50.906;7.152;2023-02-04T14:32:55;13.87;;;6.07;;
4290;SDS011;2159;50.906;7.152;2023-02-04T14:35:24;20.30;;;7.03;;
4290;SDS011;2159;50.906;7.152;2023-02-04T14:37:52;16.20;;;6.20;;
4290;SDS011;2159;50.906;7.152;2023-02-04T14:40:19;20.50;;;6.67;;
4290;SDS011;2159;50.906;7.152;2023-02-04T14:42:47;14.27;;;6.20;;
4290;SDS011;2159;50.906;7.152;2023-02-04T14:45:14;14.90;;;6.70;;
4290;SDS011;2159;50.906;7.152;2023-02-04T14:47:42;15.90;;;6.67;;
4290;SDS011;2159;50.906;7.152;2023-02-04T14:50:11;16.50;;;6.77;;
4290;SDS011;2159;50.906;7.152;2023-02-04T14:52:40;13.23;;;6.27;;
4290;SDS011;2159;50.906;7.152;2023-02-04T14:55:08;13.40;;;5.87;;
4290;SDS011;2159;50.906;7.152;2023-02-04T14:57:37;18.37;;;6.20;;
4290;SDS011;2159;50.906;7.152;2023-02-04T15:00:04;17.00;;;5.93;;
4290;SDS011;2159;50.906;7.152;2023-02-04T15:02:33;16.53;;;7.00;;
4290;SDS011;2159;50.906;7.152;2023-02-04T15:05:00;14.73;;;7.17;;